Terminal Aerodrome Forecast
Issued by NWS

Home | Current Version | Previous Version | Text Only | Print | Product List | Glossary On
Versions: 1 2 3 4 5 6 7 8 9 10 11 12 13
000
FTUS46 KSGX 241700
TAFSNA
TAF
KSNA 241724Z 2418/2518 VRB03KT P6SM FEW250
     FM241900 22009KT P6SM FEW020
     FM250300 20005KT P6SM SCT015
     FM250700 16006KT P6SM OVC015
     FM251700 19011KT P6SM BKN020=

USA.gov is the U.S. government's official web portal to all federal, state and local government web resources and services.